createdAt,value
2023-02-12T00:01:54.384Z,101085.78
2023-02-12T00:04:55.957Z,101073.09
2023-02-12T00:07:57.657Z,101088.81
2023-02-12T00:10:59.315Z,101072.16
2023-02-12T00:14:02.326Z,101082.16
2023-02-12T00:17:04.127Z,101082.16
2023-02-12T00:20:06.315Z,101072.53
2023-02-12T00:23:08.069Z,101078.56
2023-02-12T00:26:12.176Z,101077.53
2023-02-12T00:29:19.297Z,101085.91
2023-02-12T00:32:20.984Z,101086.47
2023-02-12T00:35:22.588Z,101075.91
2023-02-12T00:38:25.225Z,101076.47
2023-02-12T00:41:27.690Z,101087.75
2023-02-12T00:44:29.663Z,101074.25
2023-02-12T00:47:31.249Z,101077.88
2023-02-12T00:50:32.832Z,101084.84
2023-02-12T00:53:35.943Z,101079.13
2023-02-12T00:56:37.661Z,101072.63
2023-02-12T00:59:40.295Z,101083.09
2023-02-12T01:02:42.129Z,101079.13
2023-02-12T01:05:43.951Z,101084.25
2023-02-12T01:08:45.577Z,101091.09
2023-02-12T01:11:47.254Z,101087.28
2023-02-12T01:14:48.822Z,101084.84
2023-02-12T01:17:54.010Z,101089.03
2023-02-12T01:20:55.683Z,101089.13
2023-02-12T01:23:58.911Z,101087.28
2023-02-12T01:27:00.513Z,101097.97
2023-02-12T01:30:04.378Z,101084.59
2023-02-12T01:33:05.990Z,101086.81
2023-02-12T01:36:09.536Z,101087.03
2023-02-12T01:39:12.336Z,101081.22
2023-02-12T01:42:15.216Z,101079.50
2023-02-12T01:45:16.742Z,101086.34
2023-02-12T01:48:20.003Z,101084.59
2023-02-12T01:51:24.025Z,101077.59
2023-02-12T01:54:26.990Z,101085.63
2023-02-12T01:57:32.122Z,101073.78
2023-02-12T02:00:33.770Z,101084.00
2023-02-12T02:03:38.603Z,101079.94
2023-02-12T02:06:54.105Z,101075.41
2023-02-12T02:09:56.809Z,101073.53
2023-02-12T02:13:21.248Z,101077.84
2023-02-12T02:16:27.370Z,101073.88
2023-02-12T02:20:02.809Z,101067.94
2023-02-12T02:23:26.255Z,101066.09
2023-02-12T02:27:07.484Z,101055.63
2023-02-12T02:30:33.261Z,101060.28
2023-02-12T02:33:43.884Z,101054.69
2023-02-12T02:37:08.496Z,101062.97
2023-02-12T02:40:17.963Z,101052.97
2023-02-12T02:43:27.774Z,101052.97
2023-02-12T02:46:43.572Z,101047.38
2023-02-12T02:49:51.031Z,101055.41
2023-02-12T02:53:05.478Z,101060.41
2023-02-12T02:56:12.199Z,101063.66
2023-02-12T02:59:24.283Z,101058.31
2023-02-12T03:02:33.422Z,101047.97
2023-02-12T03:05:40.286Z,101056.56
2023-02-12T03:08:52.975Z,101047.41
2023-02-12T03:12:03.375Z,101037.28
2023-02-12T03:15:26.937Z,101038.31
2023-02-12T03:18:34.096Z,101044.25
2023-02-12T03:21:44.129Z,101046.72
2023-02-12T03:24:53.940Z,101044.25
2023-02-12T03:28:01.732Z,101042.50
2023-02-12T03:31:09.153Z,101039.16
2023-02-12T03:34:26.265Z,101043.69
2023-02-12T03:37:36.286Z,101043.59
2023-02-12T03:40:43.109Z,101048.19
2023-02-12T03:43:55.885Z,101041.59
2023-02-12T03:47:15.558Z,101046.72
2023-02-12T03:50:35.590Z,101056.00
2023-02-12T03:53:37.551Z,101040.44
2023-02-12T03:56:52.200Z,101045.78
2023-02-12T03:59:53.827Z,101056.34
2023-02-12T04:02:55.871Z,101041.59
2023-02-12T04:05:57.674Z,101046.13
2023-02-12T04:09:04.573Z,101043.91
2023-02-12T04:12:34.350Z,101054.72
2023-02-12T04:16:02.071Z,101052.75
2023-02-12T04:19:04.100Z,101061.84
2023-02-12T04:22:18.077Z,101052.53
2023-02-12T04:25:42.707Z,101055.53
2023-02-12T04:29:11.814Z,101056.22
2023-02-12T04:32:24.966Z,101053.34
2023-02-12T04:35:29.999Z,101060.88
2023-02-12T04:38:59.231Z,101061.34
2023-02-12T04:42:02.081Z,101060.66
2023-02-12T04:45:03.883Z,101045.53
2023-02-12T04:48:06.670Z,101048.72
2023-02-12T04:51:10.340Z,101053.25
2023-02-12T04:54:13.247Z,101046.75
2023-02-12T04:57:14.867Z,101048.69
2023-02-12T05:00:16.972Z,101052.66
2023-02-12T05:03:18.662Z,101046.63
2023-02-12T05:06:20.429Z,101048.00
2023-02-12T05:09:22.127Z,101030.00
2023-02-12T05:12:23.799Z,101048.00
2023-02-12T05:15:25.442Z,101049.44
2023-02-12T05:18:27.074Z,101032.81
2023-02-12T05:21:28.783Z,101045.34
2023-02-12T05:24:30.542Z,101053.72
2023-02-12T05:27:32.322Z,101052.31
2023-02-12T05:30:34.081Z,101058.91
2023-02-12T05:33:35.675Z,101054.63
2023-02-12T05:36:37.351Z,101065.19
2023-02-12T05:39:38.987Z,101057.44
2023-02-12T05:42:40.620Z,101061.34
2023-02-12T05:45:45.008Z,101060.78
2023-02-12T05:48:47.318Z,101060.31
2023-02-12T05:51:49.487Z,101048.31
2023-02-12T05:54:51.273Z,101057.94
2023-02-12T05:57:52.908Z,101064.13
2023-02-12T06:00:54.492Z,101070.84
2023-02-12T06:03:56.229Z,101068.84
2023-02-12T06:06:57.841Z,101058.53
2023-02-12T06:09:59.483Z,101062.84
2023-02-12T06:13:01.105Z,101068.03
2023-02-12T06:16:02.886Z,101064.91
2023-02-12T06:19:05.698Z,101057.03
2023-02-12T06:22:07.354Z,101048.22
2023-02-12T06:25:08.974Z,101054.81
2023-02-12T06:28:10.614Z,101049.94
2023-02-12T06:31:33.644Z,101056.56
2023-02-12T06:34:35.360Z,101048.53
2023-02-12T06:37:38.236Z,101050.38
2023-02-12T06:40:40.015Z,101045.72
2023-02-12T06:43:41.907Z,101057.41
2023-02-12T06:46:43.595Z,101053.19
2023-02-12T06:49:45.260Z,101056.19
2023-02-12T06:52:46.930Z,101052.66
2023-02-12T06:55:48.536Z,101054.38
2023-02-12T06:58:58.469Z,101055.75
2023-02-12T07:02:00.131Z,101053.31
2023-02-12T07:05:01.863Z,101046.25
2023-02-12T07:08:03.473Z,101049.31
2023-02-12T07:11:06.259Z,101061.53
2023-02-12T07:14:08.089Z,101051.16
2023-02-12T07:17:10.161Z,101066.31
2023-02-12T07:20:12.240Z,101050.41
2023-02-12T07:23:14.272Z,101066.69
2023-02-12T07:26:16.307Z,101061.91
2023-02-12T07:29:18.005Z,101067.81
2023-02-12T07:32:19.661Z,101057.66
2023-02-12T07:35:21.295Z,101051.13
2023-02-12T07:38:22.918Z,101066.00
2023-02-12T07:41:27.394Z,101057.25
2023-02-12T07:44:29.353Z,101061.84
2023-02-12T07:47:31.090Z,101048.88
2023-02-12T07:50:32.759Z,101056.94
2023-02-12T07:53:35.008Z,101058.00
2023-02-12T07:56:39.056Z,101049.69
2023-02-12T07:59:40.651Z,101052.25
2023-02-12T08:02:42.410Z,101045.19
2023-02-12T08:05:44.018Z,101045.63
2023-02-12T08:08:51.570Z,101049.72
2023-02-12T08:11:53.665Z,101043.41
2023-02-12T08:14:55.274Z,101052.84
2023-02-12T08:17:56.876Z,101043.59
2023-02-12T08:21:09.627Z,101056.59
2023-02-12T08:24:12.015Z,101043.72
2023-02-12T08:27:13.656Z,101042.91
2023-02-12T08:30:15.629Z,101043.78
2023-02-12T08:33:17.339Z,101054.00
2023-02-12T08:36:22.955Z,101053.56
2023-02-12T08:39:26.568Z,101048.38
2023-02-12T08:42:28.302Z,101050.78
2023-02-12T08:45:29.891Z,101051.09
2023-02-12T08:48:32.211Z,101045.78
2023-02-12T08:51:36.154Z,101042.75
2023-02-12T08:54:37.770Z,101039.25
2023-02-12T08:57:39.360Z,101043.38
2023-02-12T09:00:41.038Z,101041.34
2023-02-12T09:03:44.092Z,101051.75
2023-02-12T09:06:46.568Z,101042.19
2023-02-12T09:09:48.281Z,101040.50
2023-02-12T09:12:49.904Z,101035.75
2023-02-12T09:15:51.569Z,101043.53
2023-02-12T09:18:53.377Z,101038.31
2023-02-12T09:21:56.587Z,101045.69
2023-02-12T09:24:58.531Z,101038.63
2023-02-12T09:28:03.553Z,101043.81
2023-02-12T09:31:23.211Z,101036.25
2023-02-12T09:34:24.991Z,101045.22
2023-02-12T09:37:26.726Z,101047.59
2023-02-12T09:41:02.321Z,101044.19
2023-02-12T09:44:27.089Z,101053.72
2023-02-12T09:47:52.381Z,101042.50
2023-02-12T09:50:56.334Z,101039.06
2023-02-12T09:54:07.425Z,101040.16
2023-02-12T09:57:36.161Z,101052.06
2023-02-12T10:00:39.122Z,101059.09
2023-02-12T10:03:41.334Z,101055.84
2023-02-12T10:06:57.511Z,101059.34
2023-02-12T10:10:26.907Z,101055.84
2023-02-12T10:13:43.888Z,101063.41
2023-02-12T10:16:45.396Z,101058.28
2023-02-12T10:20:01.061Z,101058.25
2023-02-12T10:23:18.223Z,101058.53
2023-02-12T10:26:26.013Z,101052.56
2023-02-12T10:29:34.069Z,101042.53
2023-02-12T10:32:38.074Z,101038.25
2023-02-12T10:35:49.832Z,101039.34
2023-02-12T10:38:57.825Z,101049.59
2023-02-12T10:42:21.533Z,101034.19
2023-02-12T10:45:35.829Z,101035.75
2023-02-12T10:48:40.200Z,101032.25
2023-02-12T10:52:03.570Z,101032.72
2023-02-12T10:55:25.801Z,101017.66
2023-02-12T10:58:27.484Z,101021.03
2023-02-12T11:01:35.574Z,101022.59
2023-02-12T11:04:37.288Z,101012.56
2023-02-12T11:07:49.483Z,101003.34
2023-02-12T11:10:52.417Z,101013.53
2023-02-12T11:13:58.441Z,101013.41
2023-02-12T11:17:02.639Z,100998.13
2023-02-12T11:20:04.292Z,100999.69
2023-02-12T11:23:22.696Z,100995.69
2023-02-12T11:26:30.448Z,100989.41
2023-02-12T11:29:33.757Z,100985.59
2023-02-12T11:32:35.735Z,100987.91
2023-02-12T11:35:37.827Z,100978.09
2023-02-12T11:38:50.143Z,100981.78
2023-02-12T11:42:20.119Z,100975.28
2023-02-12T11:45:26.462Z,100973.38
2023-02-12T11:48:39.603Z,100971.41
2023-02-12T11:51:41.389Z,100968.59
2023-02-12T11:54:48.354Z,100975.16
2023-02-12T11:57:52.932Z,100963.19
2023-02-12T12:01:22.077Z,100966.69
2023-02-12T12:04:27.521Z,100957.94
2023-02-12T12:07:34.370Z,100949.81
2023-02-12T12:10:55.522Z,100947.53
2023-02-12T12:14:13.701Z,100955.41
2023-02-12T12:17:35.938Z,100949.91
2023-02-12T12:21:18.048Z,100947.44
2023-02-12T12:24:43.995Z,100952.91
2023-02-12T12:28:03.648Z,100946.09
2023-02-12T12:31:05.472Z,100941.22
2023-02-12T12:34:13.177Z,100930.56
2023-02-12T12:37:48.648Z,100939.47
2023-02-12T12:41:02.550Z,100936.72
2023-02-12T12:44:14.737Z,100938.63
2023-02-12T12:47:45.799Z,100934.91
2023-02-12T12:51:13.385Z,100914.94
2023-02-12T12:54:28.431Z,100912.09
2023-02-12T12:57:42.111Z,100914.47
2023-02-12T13:01:04.036Z,100913.38
2023-02-12T13:04:31.646Z,100911.41
2023-02-12T13:07:58.954Z,100894.66
2023-02-12T13:11:11.486Z,100903.69
2023-02-12T13:14:43.611Z,100902.38
2023-02-12T13:18:02.314Z,100888.69
2023-02-12T13:21:13.505Z,100891.00
2023-02-12T13:24:37.160Z,100891.13
2023-02-12T13:27:43.706Z,100888.91
2023-02-12T13:30:49.633Z,100879.63
2023-02-12T13:34:02.311Z,100886.81
2023-02-12T13:37:06.886Z,100871.25
2023-02-12T13:40:16.049Z,100877.50
2023-02-12T13:43:47.285Z,100877.66
2023-02-12T13:46:57.331Z,100880.25
2023-02-12T13:50:24.640Z,100873.50
2023-02-12T13:53:30.618Z,100876.75
2023-02-12T13:57:03.526Z,100879.31
2023-02-12T14:00:09.688Z,100878.34
2023-02-12T14:03:11.908Z,100865.47
2023-02-12T14:06:22.251Z,100869.41
2023-02-12T14:09:44.258Z,100871.44
2023-02-12T14:12:47.276Z,100878.13
2023-02-12T14:15:58.796Z,100861.81
2023-02-12T14:19:37.833Z,100874.16
2023-02-12T14:22:42.441Z,100876.16
2023-02-12T14:25:48.651Z,100871.78
2023-02-12T14:28:57.738Z,100878.34
2023-02-12T14:32:00.198Z,100867.84
2023-02-12T14:35:30.892Z,100874.38
2023-02-12T14:38:42.643Z,100878.69
2023-02-12T14:42:10.877Z,100869.44
2023-02-12T14:45:28.925Z,100879.06
2023-02-12T14:48:50.674Z,100875.50
2023-02-12T14:51:59.981Z,100870.53
2023-02-12T14:55:06.637Z,100869.91
2023-02-12T14:58:21.297Z,100864.31
2023-02-12T15:01:33.913Z,100873.28
2023-02-12T15:04:38.541Z,100874.94
2023-02-12T15:07:59.840Z,100873.25
2023-02-12T15:11:13.842Z,100867.84
2023-02-12T15:14:20.626Z,100866.72
2023-02-12T15:17:28.219Z,100867.88
2023-02-12T15:20:37.982Z,100871.06
2023-02-12T15:23:42.683Z,100867.69
2023-02-12T15:26:48.376Z,100854.28
2023-02-12T15:29:55.548Z,100858.13
2023-02-12T15:33:00.400Z,100852.97
2023-02-12T15:36:03.737Z,100861.63
2023-02-12T15:39:09.077Z,100860.00
2023-02-12T15:42:34.368Z,100844.75
2023-02-12T15:45:36.730Z,100855.09
2023-02-12T15:48:39.275Z,100842.31
2023-02-12T15:51:43.880Z,100836.56
2023-02-12T15:54:47.385Z,100848.94
2023-02-12T15:58:00.022Z,100851.09
2023-02-12T16:01:05.339Z,100858.44
2023-02-12T16:04:08.782Z,100860.41
2023-02-12T16:07:12.683Z,100852.72
2023-02-12T16:10:16.290Z,100866.25
2023-02-12T16:13:32.338Z,100858.44
2023-02-12T16:16:46.245Z,100863.56
2023-02-12T16:19:58.761Z,100865.34
2023-02-12T16:23:06.780Z,100874.84
2023-02-12T16:26:08.548Z,100864.28
2023-02-12T16:29:16.718Z,100872.97
2023-02-12T16:32:39.207Z,100885.31
2023-02-12T16:35:40.987Z,100884.91
2023-02-12T16:38:52.879Z,100885.06
2023-02-12T16:41:57.285Z,100889.22
2023-02-12T16:44:59.040Z,100894.38
2023-02-12T16:48:08.401Z,100910.25
2023-02-12T16:51:28.351Z,100921.53
2023-02-12T16:54:35.515Z,100910.50
2023-02-12T16:57:37.394Z,100916.44
2023-02-12T17:00:39.747Z,100921.53
2023-02-12T17:03:44.608Z,100909.63
2023-02-12T17:06:46.463Z,100933.84
2023-02-12T17:09:48.547Z,100927.66
2023-02-12T17:12:52.514Z,100927.38
2023-02-12T17:15:59.741Z,100923.28
2023-02-12T17:19:01.707Z,100914.38
2023-02-12T17:22:08.974Z,100923.78
2023-02-12T17:25:12.163Z,100928.06
2023-02-12T17:28:14.097Z,100918.88
2023-02-12T17:31:15.910Z,100916.44
2023-02-12T17:34:17.597Z,100908.28
2023-02-12T17:37:25.019Z,100915.78
2023-02-12T17:40:26.980Z,100914.97
2023-02-12T17:43:28.719Z,100917.38
2023-02-12T17:46:34.140Z,100916.28
2023-02-12T17:53:28.944Z,100921.63
2023-02-12T17:56:30.788Z,100910.03
2023-02-12T17:59:35.133Z,100913.81
2023-02-12T18:02:36.962Z,100916.44
2023-02-12T18:05:42.945Z,100917.47
2023-02-12T18:08:44.833Z,100917.47
2023-02-12T18:11:46.456Z,100921.19
2023-02-12T18:14:48.150Z,100922.03
2023-02-12T18:17:58.983Z,100925.41
2023-02-12T18:21:00.588Z,100929.34
2023-02-12T18:24:02.587Z,100926.81
2023-02-12T18:27:04.704Z,100921.88
2023-02-12T18:30:09.059Z,100920.75
2023-02-12T18:33:12.582Z,100915.00
2023-02-12T18:36:17.215Z,100910.56
2023-02-12T18:39:18.896Z,100904.81
2023-02-12T18:42:27.970Z,100909.22
2023-02-12T18:45:29.645Z,100898.75
2023-02-12T18:48:31.511Z,100896.69
2023-02-12T18:51:36.643Z,100892.03
2023-02-12T18:54:38.365Z,100902.69
2023-02-12T18:57:40.051Z,100903.38
2023-02-12T19:00:41.701Z,100897.69
2023-02-12T19:03:45.713Z,100898.41
2023-02-12T19:06:53.395Z,100896.94
2023-02-12T19:09:55.143Z,100906.22
2023-02-12T19:12:57.289Z,100896.41
2023-02-12T19:15:58.942Z,100903.13
2023-02-12T19:19:02.870Z,100901.53
2023-02-12T19:22:04.460Z,100912.00
2023-02-12T19:25:06.713Z,100906.66
2023-02-12T19:28:12.856Z,100899.84
2023-02-12T19:31:15.916Z,100902.59
2023-02-12T19:34:20.069Z,100911.28
2023-02-12T19:37:21.718Z,100906.69
2023-02-12T19:40:23.562Z,100903.16
2023-02-12T19:43:25.166Z,100912.31
2023-02-12T19:46:29.916Z,100912.41
2023-02-12T19:49:31.757Z,100909.63
2023-02-12T19:52:33.587Z,100913.41
2023-02-12T19:55:35.722Z,100911.56
2023-02-12T19:58:38.154Z,100912.34
2023-02-12T20:01:39.915Z,100908.94
2023-02-12T20:04:41.614Z,100921.50
2023-02-12T20:07:43.257Z,100913.72
2023-02-12T20:10:44.930Z,100914.84
2023-02-12T20:13:46.791Z,100921.59
2023-02-12T20:16:50.478Z,100916.44
2023-02-12T20:19:52.134Z,100922.00
2023-02-12T20:22:53.715Z,100919.16
2023-02-12T20:25:55.394Z,100900.41
2023-02-12T20:28:57.323Z,100914.97
2023-02-12T20:31:59.064Z,100923.97
2023-02-12T20:35:00.846Z,100906.84
2023-02-12T20:38:04.072Z,100908.00
2023-02-12T20:41:08.629Z,100929.97
2023-02-12T20:44:15.808Z,100922.44
2023-02-12T20:47:17.405Z,100931.84
2023-02-12T20:50:19.162Z,100922.91
2023-02-12T20:53:20.869Z,100924.47
2023-02-12T20:56:28.338Z,100912.75
2023-02-12T20:59:29.940Z,100917.22
2023-02-12T21:02:31.597Z,100923.09
2023-02-12T21:05:34.094Z,100929.06
2023-02-12T21:08:37.629Z,100928.50
2023-02-12T21:11:41.012Z,100923.41
2023-02-12T21:14:42.707Z,100918.59
2023-02-12T21:17:44.276Z,100914.09
2023-02-12T21:20:46.188Z,100915.19
2023-02-12T21:23:48.140Z,100909.53
2023-02-12T21:26:51.483Z,100908.41
2023-02-12T21:29:53.152Z,100903.47
2023-02-12T21:32:55.025Z,100918.34
2023-02-12T21:35:56.877Z,100900.41
2023-02-12T21:38:58.687Z,100907.81
2023-02-12T21:42:03.187Z,100906.53
2023-02-12T21:45:06.294Z,100903.09
2023-02-12T21:48:09.298Z,100911.47
2023-02-12T21:51:19.564Z,100907.06
2023-02-12T21:54:22.003Z,100912.78
2023-02-12T21:57:24.966Z,100910.34
2023-02-12T22:00:26.925Z,100909.00
2023-02-12T22:03:29.041Z,100912.66
2023-02-12T22:06:31.122Z,100917.00
2023-02-12T22:09:32.997Z,100900.41
2023-02-12T22:12:35.668Z,100917.16
2023-02-12T22:15:37.904Z,100907.97
2023-02-12T22:18:41.194Z,100919.16
2023-02-12T22:21:44.363Z,100915.47
2023-02-12T22:24:45.958Z,100917.25
2023-02-12T22:27:47.586Z,100918.78
2023-02-12T22:30:49.169Z,100915.63
2023-02-12T22:33:53.453Z,100916.44
2023-02-12T22:36:55.023Z,100924.13
2023-02-12T22:39:56.679Z,100926.66
2023-02-12T22:42:58.224Z,100929.59
2023-02-12T22:45:59.922Z,100929.66
2023-02-12T22:49:01.981Z,100923.75
2023-02-12T22:52:03.747Z,100918.34
2023-02-12T22:55:05.620Z,100940.94
2023-02-12T22:58:07.337Z,100930.28
2023-02-12T23:01:17.485Z,100940.50
2023-02-12T23:04:19.450Z,100932.81
2023-02-12T23:07:21.058Z,100939.63
2023-02-12T23:10:22.722Z,100941.97
2023-02-12T23:13:29.656Z,100927.66
2023-02-12T23:16:32.225Z,100944.94
2023-02-12T23:19:33.911Z,100939.13
2023-02-12T23:22:35.496Z,100946.09
2023-02-12T23:25:39.189Z,100945.63
2023-02-12T23:28:40.841Z,100935.88
2023-02-12T23:31:42.589Z,100950.97
2023-02-12T23:34:44.234Z,100958.75
2023-02-12T23:37:46.187Z,100951.66
2023-02-12T23:40:48.565Z,100953.97
2023-02-12T23:43:50.218Z,100934.19
2023-02-12T23:46:53.827Z,100955.44
2023-02-12T23:49:55.374Z,100958.38
2023-02-12T23:52:58.075Z,100953.72
2023-02-12T23:55:59.642Z,100952.44
2023-02-12T23:59:06.585Z,100954.19
